Fort Wingate, New Mexico
Current Conditions -  °F | °C
As of 10:10 AM on Saturday 20 Dec 2014 (Local Time) from KGUP Reporting Station
Few Clouds Few Clouds  
Wind Chill: -5°   Ceiling: Unl
Heat Index: -2°   Visibility: 9mi
Dew Point: -4°   Wind: 5mph
Humidity: 85%   Direction: 70°ENE
Pressure: 30.19"   Gusts: NA
Location:  35.47°N, 108.55°W
Report Text: KGUP 201710Z AUTO 07004KT 9SM FEW003 M02/M04 A3019 RMK AO2 I1000 T10221044
Loading
Personal Weather Stations






























Interactive Weather Map New forecast layout! Learn more

10-Day Weather Forecast

Advertisements
Track Severe Weather on mobile